Time;durP1;ratioP1;P1;durP2;ratioP2;P2;SDS_P1;SDS_P2;PMS_P1;PMS_P2;Temp;Humidity;BMP_temperature;BMP_pressure;BME280_temperature;BME280_humidity;BME280_pressure;Samples;Min_cycle;Max_cycle;Signal;HPM_P1;HPM_P2
2023/07/09 00:01:14;;;;;;;5.57;4.78;;;23.70;60.20;;;;;;5052253;28;20171;-59
2023/07/09 00:03:40;;;;;;;5.47;5.00;;;23.60;60.10;;;;;;5053712;28;20214;-60
2023/07/09 00:06:07;;;;;;;5.10;4.57;;;23.60;60.20;;;;;;5052874;28;20178;-60
2023/07/09 00:08:33;;;;;;;6.03;5.43;;;23.60;60.10;;;;;;5036330;28;20187;-60
2023/07/09 00:10:59;;;;;;;5.55;5.10;;;23.60;60.10;;;;;;5052500;28;20179;-60
2023/07/09 00:13:25;;;;;;;5.35;4.85;;;23.60;60.10;;;;;;5053471;28;20175;-60
2023/07/09 00:15:50;;;;;;;5.70;5.10;;;23.60;60.10;;;;;;5053395;28;20544;-60
2023/07/09 00:18:16;;;;;;;5.90;5.30;;;23.60;60.90;;;;;;5053281;28;20175;-59
2023/07/09 00:20:43;;;;;;;5.35;4.85;;;23.60;60.10;;;;;;5053198;28;20179;-60
2023/07/09 00:23:09;;;;;;;5.95;5.30;;;23.60;60.10;;;;;;5052661;28;20708;-59
2023/07/09 00:25:35;;;;;;;6.53;5.82;;;23.50;60.00;;;;;;5053326;28;20180;-59
2023/07/09 00:28:02;;;;;;;5.05;4.53;;;23.60;60.10;;;;;;5052553;28;20182;-59
2023/07/09 00:30:27;;;;;;;5.55;5.05;;;23.60;60.10;;;;;;5053773;28;20218;-59
2023/07/09 00:32:54;;;;;;;5.97;5.00;;;23.60;60.10;;;;;;5053370;28;20171;-60
2023/07/09 00:35:19;;;;;;;5.30;4.80;;;23.60;60.10;;;;;;5052099;28;20254;-60
2023/07/09 00:37:45;;;;;;;6.15;5.55;;;23.60;60.10;;;;;;5053582;28;20191;-60
2023/07/09 00:40:16;;;;;;;5.32;4.82;;;23.60;60.10;;;;;;5053019;28;20249;-60
2023/07/09 00:42:43;;;;;;;4.57;4.15;;;23.60;60.10;;;;;;5052566;28;20317;-60
2023/07/09 00:45:25;;;;;;;5.32;4.82;;;23.60;60.10;;;;;;5052669;28;20179;-59
2023/07/09 00:48:06;;;;;;;6.05;5.07;;;23.60;60.10;;;;;;5043485;28;20683;-60
2023/07/09 00:50:51;;;;;;;5.95;5.35;;;23.60;60.10;;;;;;5052240;28;20530;-59
2023/07/09 00:53:25;;;;;;;6.20;5.40;;;23.60;60.10;;;;;;5053041;28;20225;-59
2023/07/09 00:55:56;;;;;;;6.28;5.68;;;23.60;60.10;;;;;;5051006;28;20175;-59
2023/07/09 00:58:21;;;;;;;5.57;5.00;;;23.60;60.10;;;;;;5053139;28;20186;-59
2023/07/09 01:00:52;;;;;;;6.63;5.10;;;23.60;60.10;;;;;;5051760;28;20171;-60
2023/07/09 01:03:33;;;;;;;5.97;5.43;;;23.60;60.10;;;;;;5050818;28;20256;-60
2023/07/09 01:05:58;;;;;;;5.63;5.13;;;23.60;60.10;;;;;;5051152;28;20589;-60
2023/07/09 01:08:24;;;;;;;5.18;4.68;;;23.60;60.10;;;;;;5052042;28;20167;-60
2023/07/09 01:10:50;;;;;;;6.47;5.03;;;23.60;60.10;;;;;;5052473;28;20190;-60
2023/07/09 01:13:18;;;;;;;5.95;5.35;;;23.60;60.10;;;;;;5052787;28;20182;-60
2023/07/09 01:15:43;;;;;;;5.40;4.85;;;23.60;60.60;;;;;;5051734;28;20798;-60
2023/07/09 01:18:10;;;;;;;5.32;4.82;;;23.60;60.10;;;;;;5050319;28;20175;-60
2023/07/09 01:20:37;;;;;;;5.97;5.38;;;23.60;60.10;;;;;;5052697;28;20656;-60
2023/07/09 01:23:03;;;;;;;6.85;5.28;;;23.60;60.10;;;;;;5052249;28;20220;-59
2023/07/09 01:25:29;;;;;;;4.93;4.53;;;23.60;60.10;;;;;;5051678;28;20168;-60
2023/07/09 01:27:55;;;;;;;5.78;5.28;;;23.60;60.10;;;;;;5052500;28;20508;-59
2023/07/09 01:30:28;;;;;;;5.28;4.82;;;23.60;60.10;;;;;;5051703;28;20198;-59
2023/07/09 01:32:57;;;;;;;5.75;5.15;;;23.60;60.20;;;;;;5051277;28;20202;-60
2023/07/09 01:35:22;;;;;;;5.85;5.25;;;23.50;60.10;;;;;;5052298;28;20258;-60
2023/07/09 01:37:48;;;;;;;5.40;4.90;;;23.60;60.20;;;;;;5052095;28;20254;-60
2023/07/09 01:40:15;;;;;;;6.45;5.05;;;23.50;60.10;;;;;;5052111;28;20293;-60
2023/07/09 01:42:42;;;;;;;5.47;4.93;;;23.50;60.10;;;;;;5052428;28;20260;-60
2023/07/09 01:45:10;;;;;;;6.13;5.53;;;23.50;60.10;;;;;;5051183;28;20626;-60
2023/07/09 01:47:35;;;;;;;5.55;5.05;;;23.50;60.10;;;;;;5052187;28;20195;-60
2023/07/09 01:50:01;;;;;;;5.68;5.03;;;23.50;60.10;;;;;;5052358;28;20178;-59
2023/07/09 01:52:29;;;;;;;5.65;5.15;;;23.50;60.10;;;;;;5052087;28;20171;-59
2023/07/09 01:54:55;;;;;;;5.68;5.13;;;23.50;60.10;;;;;;5051525;28;20171;-59
2023/07/09 01:57:25;;;;;;;5.18;4.68;;;23.50;60.10;;;;;;5052203;28;20588;-59
2023/07/09 01:59:52;;;;;;;5.10;4.70;;;23.50;60.30;;;;;;5051497;28;20210;-59
2023/07/09 02:02:21;;;;;;;5.10;4.60;;;23.50;60.10;;;;;;5051911;28;20624;-59
2023/07/09 02:04:51;;;;;;;5.30;4.80;;;23.50;60.10;;;;;;5052063;28;20187;-60
2023/07/09 02:07:17;;;;;;;5.22;4.72;;;23.50;60.10;;;;;;5051556;28;20236;-59
2023/07/09 02:09:42;;;;;;;5.43;4.85;;;23.50;60.10;;;;;;5052748;28;20187;-59
2023/07/09 02:12:09;;;;;;;5.32;4.68;;;23.50;60.20;;;;;;5052248;28;20275;-59
2023/07/09 02:14:35;;;;;;;5.38;4.85;;;23.50;60.10;;;;;;5051234;28;20179;-59
2023/07/09 02:17:00;;;;;;;5.30;4.80;;;23.50;61.00;;;;;;5051874;28;20171;-59
2023/07/09 02:19:27;;;;;;;5.45;4.90;;;23.50;60.10;;;;;;5052429;28;20294;-60
2023/07/09 02:21:52;;;;;;;5.38;4.88;;;23.50;60.10;;;;;;5051561;28;20176;-60
2023/07/09 02:24:18;;;;;;;5.47;4.97;;;23.50;60.20;;;;;;5052103;28;20211;-59
2023/07/09 02:26:44;;;;;;;5.32;4.82;;;23.50;60.10;;;;;;5051256;28;20163;-59
2023/07/09 02:29:10;;;;;;;6.63;4.82;;;23.50;60.10;;;;;;5051848;28;20175;-59
2023/07/09 02:31:36;;;;;;;5.28;4.78;;;23.50;61.00;;;;;;5052106;28;20653;-59
2023/07/09 02:34:02;;;;;;;6.05;5.45;;;23.50;60.20;;;;;;5051039;28;20266;-59
2023/07/09 02:36:28;;;;;;;5.00;4.50;;;23.50;60.20;;;;;;5051428;28;20241;-60
2023/07/09 02:38:53;;;;;;;5.30;4.80;;;23.50;60.20;;;;;;5051992;28;20175;-59
2023/07/09 02:41:19;;;;;;;5.35;4.85;;;23.50;60.20;;;;;;5051060;28;20179;-60
2023/07/09 02:43:44;;;;;;;5.38;4.88;;;23.50;60.20;;;;;;5051981;28;20218;-59
2023/07/09 02:46:10;;;;;;;5.50;4.85;;;23.50;60.20;;;;;;5054084;28;20262;-59
2023/07/09 02:48:35;;;;;;;5.78;4.80;;;23.50;60.20;;;;;;5055081;28;20258;-60
2023/07/09 02:51:01;;;;;;;5.85;5.28;;;23.50;60.20;;;;;;5055479;28;20210;-59
2023/07/09 02:53:27;;;;;;;5.53;4.88;;;23.50;60.20;;;;;;5055580;28;20178;-59
2023/07/09 02:55:52;;;;;;;4.55;4.15;;;23.50;60.30;;;;;;5054592;28;20179;-59
2023/07/09 02:58:18;;;;;;;5.20;4.65;;;23.50;60.30;;;;;;5055163;28;20634;-59
2023/07/09 03:00:45;;;;;;;5.18;4.47;;;23.50;60.30;;;;;;5055312;28;20254;-60
2023/07/09 03:03:11;;;;;;;5.60;5.10;;;23.50;60.40;;;;;;5054507;28;20214;-59
2023/07/09 03:05:36;;;;;;;5.82;5.05;;;23.50;60.30;;;;;;5055248;28;20198;-60
2023/07/09 03:08:02;;;;;;;5.22;4.78;;;23.50;60.40;;;;;;5055148;28;20653;-59
2023/07/09 03:10:28;;;;;;;5.80;5.20;;;23.50;60.30;;;;;;5054525;28;20531;-59
2023/07/09 03:12:54;;;;;;;5.38;4.88;;;23.50;60.20;;;;;;5054878;28;20179;-59
2023/07/09 03:15:19;;;;;;;5.70;5.20;;;23.50;60.20;;;;;;5054639;28;20186;-59
2023/07/09 03:17:45;;;;;;;5.15;4.65;;;23.50;60.40;;;;;;5054574;28;20179;-59
2023/07/09 03:20:11;;;;;;;5.28;4.78;;;23.50;60.40;;;;;;5054793;28;20181;-59
2023/07/09 03:22:37;;;;;;;5.13;4.63;;;23.50;60.40;;;;;;5054664;28;20264;-59
2023/07/09 03:25:02;;;;;;;5.10;4.63;;;23.50;60.50;;;;;;5054028;28;20174;-59
2023/07/09 03:27:28;;;;;;;5.53;5.00;;;23.50;60.50;;;;;;5054884;28;20178;-58
2023/07/09 03:29:53;;;;;;;7.32;5.18;;;23.40;60.50;;;;;;5054736;28;20225;-59
2023/07/09 03:32:19;;;;;;;5.47;4.97;;;23.50;60.60;;;;;;5053982;28;20190;-59
2023/07/09 03:34:44;;;;;;;5.80;5.20;;;23.50;60.50;;;;;;5054515;28;20217;-60
2023/07/09 03:37:10;;;;;;;5.60;5.10;;;23.50;60.50;;;;;;5053898;28;20641;-60
2023/07/09 03:39:35;;;;;;;5.13;4.72;;;23.50;60.50;;;;;;5054766;28;20311;-59
2023/07/09 03:42:01;;;;;;;5.78;5.28;;;23.50;60.50;;;;;;5054577;28;20262;-60
2023/07/09 03:44:26;;;;;;;5.47;4.97;;;23.50;60.60;;;;;;5053116;28;20253;-59
2023/07/09 03:46:52;;;;;;;5.47;4.97;;;23.50;61.40;;;;;;5054244;28;20202;-59
2023/07/09 03:49:17;;;;;;;4.90;4.40;;;23.50;60.50;;;;;;5054126;28;20187;-59
2023/07/09 03:51:43;;;;;;;5.35;4.85;;;23.40;60.50;;;;;;5053580;28;20175;-59
2023/07/09 03:54:09;;;;;;;6.25;5.53;;;23.40;60.50;;;;;;5053838;28;20666;-59
2023/07/09 03:56:34;;;;;;;6.03;5.40;;;23.50;60.50;;;;;;5053491;28;20618;-59
2023/07/09 03:59:00;;;;;;;5.70;5.20;;;23.50;60.60;;;;;;5053178;28;20255;-59
2023/07/09 04:01:25;;;;;;;5.13;4.63;;;23.50;60.60;;;;;;5054383;28;20521;-59
2023/07/09 04:03:51;;;;;;;6.68;5.22;;;23.50;60.60;;;;;;5053809;28;20202;-59
2023/07/09 04:06:16;;;;;;;5.53;4.97;;;23.50;60.60;;;;;;5053230;28;20173;-59
2023/07/09 04:08:42;;;;;;;5.50;5.00;;;23.50;60.60;;;;;;5054122;28;20715;-59
2023/07/09 04:11:08;;;;;;;5.65;5.13;;;23.50;61.40;;;;;;5053445;28;20627;-59
2023/07/09 04:13:34;;;;;;;6.88;5.78;;;23.50;60.50;;;;;;5053216;28;20186;-59
2023/07/09 04:16:02;;;;;;;5.85;5.35;;;23.50;60.60;;;;;;5053946;28;20635;-60
2023/07/09 04:18:28;;;;;;;6.05;5.50;;;23.50;60.60;;;;;;5054086;28;20266;-60
2023/07/09 04:20:54;;;;;;;5.45;4.95;;;23.50;60.60;;;;;;5052960;28;20250;-59
2023/07/09 04:23:19;;;;;;;5.93;5.30;;;23.50;60.50;;;;;;5053648;28;20199;-59
2023/07/09 04:25:45;;;;;;;5.30;4.80;;;23.50;60.60;;;;;;5053749;28;20179;-59
2023/07/09 04:28:10;;;;;;;5.45;4.95;;;23.50;60.50;;;;;;5052658;28;20175;-59
2023/07/09 04:30:36;;;;;;;5.65;5.07;;;23.50;60.50;;;;;;5053507;28;20174;-59
2023/07/09 04:33:02;;;;;;;5.88;5.38;;;23.50;60.50;;;;;;5053302;28;20182;-59
2023/07/09 04:35:27;;;;;;;5.63;5.20;;;23.50;60.50;;;;;;5053144;28;20171;-59
2023/07/09 04:37:53;;;;;;;5.13;4.70;;;23.50;60.50;;;;;;5052745;28;20190;-59
2023/07/09 04:40:19;;;;;;;5.55;5.05;;;23.50;60.50;;;;;;5051945;28;20258;-59
2023/07/09 04:42:44;;;;;;;6.35;5.85;;;23.50;60.50;;;;;;5052895;28;20233;-59
2023/07/09 04:45:10;;;;;;;5.50;5.00;;;23.50;60.50;;;;;;5053355;28;20522;-60
2023/07/09 04:47:36;;;;;;;5.68;5.18;;;23.50;60.50;;;;;;5052827;28;21009;-60
2023/07/09 04:50:03;;;;;;;5.95;5.35;;;23.50;60.50;;;;;;5053152;28;20179;-59
2023/07/09 04:52:30;;;;;;;5.78;5.22;;;23.50;60.40;;;;;;5053090;28;20178;-59
2023/07/09 04:54:56;;;;;;;5.43;4.93;;;23.50;60.50;;;;;;5052303;28;20187;-59
2023/07/09 04:57:22;;;;;;;5.38;4.97;;;23.50;60.40;;;;;;5053008;28;20177;-58
2023/07/09 04:59:48;;;;;;;5.82;5.30;;;23.50;60.50;;;;;;5053399;28;20175;-59
2023/07/09 05:02:14;;;;;;;5.63;5.13;;;23.50;60.50;;;;;;5052102;28;20233;-59
2023/07/09 05:04:39;;;;;;;5.88;5.30;;;23.50;60.50;;;;;;5052998;28;20179;-60
2023/07/09 05:07:05;;;;;;;5.47;4.97;;;23.50;60.50;;;;;;5052496;28;20175;-60
2023/07/09 05:09:31;;;;;;;6.68;5.95;;;23.50;60.50;;;;;;5052073;28;20182;-59
2023/07/09 05:11:57;;;;;;;5.80;5.25;;;23.50;60.50;;;;;;5052613;28;20203;-59
2023/07/09 05:14:22;;;;;;;5.40;4.90;;;23.50;60.50;;;;;;5053138;28;20175;-59
2023/07/09 05:16:48;;;;;;;6.25;5.65;;;23.50;60.50;;;;;;5050700;28;20625;-59
2023/07/09 05:19:14;;;;;;;5.85;5.35;;;23.50;60.50;;;;;;5052022;28;20179;-59
2023/07/09 05:21:40;;;;;;;5.45;4.95;;;23.50;60.50;;;;;;5052386;28;20171;-60
2023/07/09 05:24:05;;;;;;;6.15;5.60;;;23.50;60.40;;;;;;5050988;28;20592;-60
2023/07/09 05:26:31;;;;;;;5.65;5.13;;;23.50;60.50;;;;;;5052762;28;20175;-59
2023/07/09 05:28:57;;;;;;;6.22;5.63;;;23.50;60.50;;;;;;5052434;28;20171;-59
2023/07/09 05:31:22;;;;;;;6.63;6.00;;;23.50;60.40;;;;;;5052284;28;20292;-59
2023/07/09 05:33:48;;;;;;;5.82;5.32;;;23.50;60.40;;;;;;5052104;28;20684;-60
2023/07/09 05:36:15;;;;;;;5.35;4.93;;;23.50;60.40;;;;;;5052087;28;20665;-59
2023/07/09 05:38:43;;;;;;;5.13;4.68;;;23.50;60.30;;;;;;5052045;28;20210;-59
2023/07/09 05:41:08;;;;;;;5.03;4.63;;;23.50;60.30;;;;;;5051953;28;20222;-59
2023/07/09 05:43:34;;;;;;;5.50;5.00;;;23.50;60.30;;;;;;5052109;28;20688;-60
2023/07/09 05:46:01;;;;;;;6.10;5.50;;;23.60;60.30;;;;;;5052189;28;20163;-59
2023/07/09 05:48:27;;;;;;;5.80;5.20;;;23.60;60.40;;;;;;5052416;28;20262;-59
2023/07/09 05:50:53;;;;;;;5.82;5.32;;;23.60;60.30;;;;;;5051912;28;20203;-58
2023/07/09 05:53:19;;;;;;;5.57;5.07;;;23.60;60.30;;;;;;5052259;28;20172;-59
2023/07/09 05:55:44;;;;;;;5.30;4.80;;;23.60;60.30;;;;;;5052328;28;20179;-59
2023/07/09 05:58:10;;;;;;;5.68;5.18;;;23.60;60.20;;;;;;5051395;28;20178;-59
2023/07/09 06:00:37;;;;;;;5.45;4.95;;;23.60;60.30;;;;;;5052375;28;20202;-60
2023/07/09 06:03:07;;;;;;;5.50;4.93;;;23.60;60.20;;;;;;5051667;28;20269;-59
2023/07/09 06:05:32;;;;;;;6.15;5.55;;;23.60;60.20;;;;;;5051555;28;20594;-59
2023/07/09 06:07:58;;;;;;;5.60;5.10;;;23.60;60.20;;;;;;5052054;28;20179;-59
2023/07/09 06:10:23;;;;;;;6.93;6.15;;;23.60;60.10;;;;;;5052420;28;20511;-59
2023/07/09 06:12:49;;;;;;;5.57;5.07;;;23.60;60.10;;;;;;5051600;28;20677;-58
2023/07/09 06:15:15;;;;;;;5.60;5.10;;;23.60;60.10;;;;;;5052100;28;20971;-59
2023/07/09 06:17:41;;;;;;;5.80;5.30;;;23.60;60.10;;;;;;5052223;28;20203;-59
2023/07/09 06:20:08;;;;;;;5.25;4.85;;;23.60;60.10;;;;;;5051196;28;20761;-59
2023/07/09 06:22:33;;;;;;;5.25;4.80;;;23.60;60.00;;;;;;5055893;28;20215;-59
2023/07/09 06:25:00;;;;;;;5.70;5.13;;;23.60;60.00;;;;;;5055998;28;20216;-59
2023/07/09 06:27:25;;;;;;;5.07;4.65;;;23.60;60.10;;;;;;5055333;28;20179;-59
2023/07/09 06:29:51;;;;;;;5.80;5.30;;;23.60;60.10;;;;;;5056043;28;20173;-59
2023/07/09 06:32:17;;;;;;;5.80;5.30;;;23.60;60.20;;;;;;5055881;28;20254;-59
2023/07/09 06:34:42;;;;;;;5.35;4.88;;;23.60;60.30;;;;;;5055352;28;20202;-59
2023/07/09 06:37:08;;;;;;;5.72;5.22;;;23.60;60.20;;;;;;5055439;28;20175;-59
2023/07/09 06:39:33;;;;;;;6.15;5.55;;;23.60;60.40;;;;;;5055035;28;20223;-59
2023/07/09 06:41:59;;;;;;;5.80;5.20;;;23.60;61.20;;;;;;5054867;28;20206;-59
2023/07/09 06:44:25;;;;;;;6.25;5.47;;;23.60;60.30;;;;;;5055564;28;20260;-60
2023/07/09 06:46:51;;;;;;;5.68;5.18;;;23.60;61.20;;;;;;5055629;28;20258;-60
2023/07/09 06:49:16;;;;;;;5.95;5.45;;;23.60;60.40;;;;;;5055165;28;20206;-59
2023/07/09 06:51:42;;;;;;;6.60;6.00;;;23.60;60.50;;;;;;5055517;28;20261;-59
2023/07/09 06:54:08;;;;;;;6.50;5.65;;;23.70;60.60;;;;;;5054234;28;20186;-59
2023/07/09 06:56:34;;;;;;;6.57;5.97;;;23.70;60.80;;;;;;5055593;28;20198;-59
2023/07/09 06:59:00;;;;;;;5.72;5.03;;;23.60;60.60;;;;;;5055261;28;20183;-59
2023/07/09 07:01:25;;;;;;;6.05;5.45;;;23.60;60.40;;;;;;5054447;28;20171;-59
2023/07/09 07:03:51;;;;;;;5.82;5.15;;;23.70;60.50;;;;;;5055303;28;20215;-59
2023/07/09 07:06:16;;;;;;;5.65;5.15;;;23.60;61.10;;;;;;5054742;28;20254;-60
2023/07/09 07:08:42;;;;;;;5.30;4.90;;;23.70;60.10;;;;;;5054404;28;20174;-59
2023/07/09 07:11:07;;;;;;;5.25;4.75;;;23.70;60.00;;;;;;5054927;28;20178;-59
2023/07/09 07:13:34;;;;;;;4.93;4.53;;;23.70;59.90;;;;;;5055259;28;20198;-60
2023/07/09 07:16:00;;;;;;;4.95;4.55;;;23.70;60.00;;;;;;5054159;28;20175;-59
2023/07/09 07:18:26;;;;;;;5.30;4.80;;;23.70;60.00;;;;;;5054992;28;20186;-59
2023/07/09 07:20:52;;;;;;;5.38;4.88;;;23.70;60.10;;;;;;5054870;28;20175;-59
2023/07/09 07:23:17;;;;;;;5.47;4.97;;;23.60;60.80;;;;;;5053880;28;20207;-60
2023/07/09 07:25:47;;;;;;;5.13;4.45;;;23.70;60.00;;;;;;5054845;28;20199;-59
2023/07/09 07:28:13;;;;;;;5.05;4.65;;;23.70;59.90;;;;;;5054087;28;20185;-59
2023/07/09 07:30:38;;;;;;;5.80;5.20;;;23.70;59.90;;;;;;5053957;28;20171;-59
2023/07/09 07:33:04;;;;;;;5.38;4.88;;;23.70;59.90;;;;;;5054470;28;20194;-59
2023/07/09 07:35:29;;;;;;;5.93;5.32;;;23.70;59.90;;;;;;5054623;28;20171;-59
2023/07/09 07:37:55;;;;;;;5.10;4.70;;;23.70;59.90;;;;;;5053848;28;20182;-59
2023/07/09 07:40:20;;;;;;;4.97;4.57;;;23.70;60.70;;;;;;5054585;28;20229;-60
2023/07/09 07:42:46;;;;;;;5.15;4.65;;;23.70;59.90;;;;;;5054536;28;20207;-60
2023/07/09 07:45:12;;;;;;;5.13;4.72;;;23.70;59.90;;;;;;5053798;28;20512;-59
2023/07/09 07:47:37;;;;;;;4.93;4.43;;;23.70;60.00;;;;;;5054671;28;20202;-60
2023/07/09 07:50:03;;;;;;;4.95;4.55;;;23.70;59.90;;;;;;5054164;28;20287;-59
2023/07/09 07:52:29;;;;;;;5.60;5.10;;;23.70;59.90;;;;;;5053493;28;20190;-59
2023/07/09 07:54:54;;;;;;;5.00;4.60;;;23.70;59.90;;;;;;5054114;28;20178;-59
2023/07/09 07:57:21;;;;;;;6.07;5.47;;;23.70;59.90;;;;;;5053068;28;20550;-58
2023/07/09 07:59:47;;;;;;;5.10;4.70;;;23.70;59.90;;;;;;5054268;28;20171;-59
2023/07/09 08:02:13;;;;;;;5.30;4.85;;;23.70;61.40;;;;;;5054000;28;20182;-59
2023/07/09 08:04:40;;;;;;;6.25;5.65;;;23.70;63.50;;;;;;5053450;28;20183;-59
2023/07/09 08:07:07;;;;;;;5.45;4.75;;;23.80;63.90;;;;;;5053879;28;20182;-59
2023/07/09 08:09:33;;;;;;;5.10;4.60;;;23.80;63.50;;;;;;5054033;28;20705;-59
2023/07/09 08:11:59;;;;;;;4.93;4.35;;;23.80;63.00;;;;;;5052934;28;20665;-59
2023/07/09 08:14:24;;;;;;;5.13;4.72;;;23.80;61.70;;;;;;5053989;28;20171;-59
2023/07/09 08:16:50;;;;;;;5.47;4.97;;;23.80;61.10;;;;;;5054202;28;20175;-59
2023/07/09 08:19:18;;;;;;;5.35;4.85;;;23.80;61.10;;;;;;5052528;28;20228;-59
2023/07/09 08:21:43;;;;;;;4.80;4.40;;;23.80;60.90;;;;;;5053819;28;20641;-59
2023/07/09 08:24:09;;;;;;;5.15;4.65;;;23.80;60.90;;;;;;5053422;28;20217;-59
2023/07/09 08:26:37;;;;;;;4.70;4.30;;;23.80;60.80;;;;;;5053259;28;20174;-59
2023/07/09 08:29:03;;;;;;;5.10;4.70;;;23.80;60.70;;;;;;5052610;28;20207;-59
2023/07/09 08:31:28;;;;;;;4.95;4.55;;;23.80;60.70;;;;;;5053546;28;20178;-59
2023/07/09 08:33:54;;;;;;;5.43;4.93;;;23.80;60.70;;;;;;5052676;28;20201;-59
2023/07/09 08:36:19;;;;;;;6.05;5.13;;;23.80;60.60;;;;;;5053455;28;20174;-60
2023/07/09 08:38:45;;;;;;;5.25;4.40;;;23.80;60.60;;;;;;5053578;28;20210;-60
2023/07/09 08:41:37;;;;;;;5.07;4.57;;;23.80;60.50;;;;;;5052522;28;20622;-59
2023/07/09 08:44:20;;;;;;;4.85;4.45;;;23.80;60.50;;;;;;5051325;28;20210;-59
2023/07/09 08:46:59;;;;;;;4.70;4.30;;;23.90;60.60;;;;;;5051564;28;20175;-59
2023/07/09 08:49:42;;;;;;;5.93;5.25;;;23.90;60.60;;;;;;5053052;28;20186;-59
2023/07/09 08:52:33;;;;;;;5.05;4.55;;;23.90;60.50;;;;;;5052869;28;20633;-59
2023/07/09 08:55:06;;;;;;;4.95;4.55;;;23.90;60.50;;;;;;5052295;28;20221;-59
2023/07/09 08:57:40;;;;;;;4.70;4.30;;;23.90;60.50;;;;;;5052295;28;20258;-59
2023/07/09 09:00:30;;;;;;;4.95;4.53;;;23.90;60.40;;;;;;5052850;28;20186;-59
2023/07/09 09:03:04;;;;;;;4.75;4.35;;;23.90;60.40;;;;;;5052545;28;20219;-59
2023/07/09 09:05:29;;;;;;;5.20;4.53;;;23.90;61.30;;;;;;5036065;28;20525;-59
2023/07/09 09:08:12;;;;;;;4.40;4.00;;;24.00;60.50;;;;;;5052095;28;20184;-59
2023/07/09 09:10:46;;;;;;;4.88;4.47;;;24.00;60.50;;;;;;5052080;28;20224;-59
2023/07/09 09:13:16;;;;;;;4.85;4.35;;;24.00;60.40;;;;;;5052755;28;20542;-59
2023/07/09 09:15:45;;;;;;;5.20;4.75;;;24.00;61.30;;;;;;5034906;28;20527;-60
2023/07/09 09:18:27;;;;;;;4.53;4.13;;;24.00;60.40;;;;;;5035226;28;20301;-59
2023/07/09 09:21:01;;;;;;;5.13;4.55;;;24.00;60.40;;;;;;5052637;28;20190;-59
2023/07/09 09:23:59;;;;;;;4.40;4.00;;;24.00;60.40;;;;;;5051036;28;20245;-59
2023/07/09 09:26:29;;;;;;;5.28;4.78;;;24.00;61.20;;;;;;5051467;28;20187;-59
2023/07/09 09:28:55;;;;;;;4.72;4.32;;;24.00;60.40;;;;;;5050808;28;20544;-58
2023/07/09 09:31:21;;;;;;;4.38;4.03;;;24.00;60.30;;;;;;5052930;28;20175;-59
2023/07/09 09:33:48;;;;;;;4.72;4.32;;;24.00;60.40;;;;;;5052820;28;20179;-59
2023/07/09 09:36:21;;;;;;;4.60;4.20;;;24.00;60.30;;;;;;5051789;28;20185;-59
2023/07/09 09:38:50;;;;;;;4.90;4.40;;;24.10;60.40;;;;;;5052641;28;20175;-59
2023/07/09 09:41:20;;;;;;;5.50;4.25;;;24.10;60.30;;;;;;5052283;28;20596;-60
2023/07/09 09:43:46;;;;;;;5.30;4.80;;;24.00;60.30;;;;;;5051945;28;20222;-60
2023/07/09 09:46:17;;;;;;;4.90;4.40;;;24.10;60.30;;;;;;5052303;28;20657;-59
2023/07/09 09:48:45;;;;;;;5.22;4.72;;;24.10;60.40;;;;;;5050800;28;20187;-60
2023/07/09 09:51:10;;;;;;;4.75;4.35;;;24.10;60.30;;;;;;5049519;28;20186;-59
2023/07/09 09:53:40;;;;;;;4.85;4.30;;;24.10;61.10;;;;;;5051505;28;20175;-59
2023/07/09 09:56:10;;;;;;;4.88;4.15;;;24.10;60.40;;;;;;5056393;28;20175;-59
2023/07/09 09:58:39;;;;;;;4.82;4.43;;;24.10;60.30;;;;;;5054783;28;20179;-59
2023/07/09 10:01:04;;;;;;;5.22;4.70;;;24.10;60.30;;;;;;5055026;28;20177;-59
2023/07/09 10:03:34;;;;;;;4.68;4.25;;;24.10;60.30;;;;;;5055540;28;20298;-59
2023/07/09 10:06:02;;;;;;;4.40;3.83;;;24.10;60.30;;;;;;5055442;28;20524;-59
2023/07/09 10:08:56;;;;;;;4.63;4.22;;;24.20;60.40;;;;;;5054945;28;20179;-60
2023/07/09 10:11:42;;;;;;;4.40;4.00;;;24.20;60.40;;;;;;5038904;28;20174;-59
2023/07/09 10:14:31;;;;;;;3.97;3.67;;;24.20;60.50;;;;;;5054802;28;20258;-59
2023/07/09 10:17:05;;;;;;;4.65;4.25;;;24.20;60.80;;;;;;5039919;28;20175;-59
2023/07/09 10:19:35;;;;;;;4.63;4.15;;;24.20;60.70;;;;;;5053748;28;20178;-59
2023/07/09 10:22:05;;;;;;;4.47;3.90;;;24.20;60.40;;;;;;5054899;28;20175;-60
2023/07/09 10:24:37;;;;;;;4.88;4.20;;;24.20;61.10;;;;;;5054791;28;20812;-59
2023/07/09 10:27:20;;;;;;;5.15;4.65;;;24.20;61.00;;;;;;5054526;28;20179;-59
2023/07/09 10:30:13;;;;;;;5.03;4.28;;;24.20;61.10;;;;;;5055976;28;20183;-59
2023/07/09 10:33:06;;;;;;;4.45;4.05;;;24.20;61.10;;;;;;5055013;28;20266;-58
2023/07/09 10:35:36;;;;;;;5.40;4.90;;;24.20;60.60;;;;;;5055375;28;20182;-59
2023/07/09 10:38:26;;;;;;;15.27;7.05;;;24.20;61.00;;;;;;5054957;28;20707;-59
2023/07/09 10:40:58;;;;;;;12.73;8.23;;;24.30;62.70;;;;;;5053702;28;20721;-59
2023/07/09 10:43:45;;;;;;;11.05;5.97;;;24.30;63.40;;;;;;5037973;28;20211;-60
2023/07/09 10:46:16;;;;;;;10.90;6.80;;;24.30;64.20;;;;;;5053523;28;20183;-60
2023/07/09 10:48:50;;;;;;;10.45;6.45;;;24.30;63.50;;;;;;5055263;28;20210;-59
2023/07/09 10:51:23;;;;;;;11.07;7.00;;;24.40;63.60;;;;;;5054627;28;20189;-58
2023/07/09 10:53:54;;;;;;;10.13;6.68;;;24.40;64.30;;;;;;5053325;28;20183;-59
2023/07/09 10:56:22;;;;;;;8.73;6.53;;;24.40;65.40;;;;;;5054026;28;20697;-59
2023/07/09 10:58:56;;;;;;;13.27;7.78;;;24.40;64.80;;;;;;5054342;28;20306;-59
2023/07/09 11:01:41;;;;;;;11.02;7.10;;;24.40;65.50;;;;;;5053444;28;20209;-59
2023/07/09 11:04:11;;;;;;;10.25;7.13;;;24.50;66.50;;;;;;5053966;28;20202;-60
2023/07/09 11:06:40;;;;;;;11.60;7.38;;;24.50;65.70;;;;;;5053479;28;20221;-60
2023/07/09 11:09:26;;;;;;;10.25;6.93;;;24.50;66.70;;;;;;5052747;28;20183;-59
2023/07/09 11:11:54;;;;;;;10.35;7.25;;;24.50;66.80;;;;;;5053460;28;20198;-59
2023/07/09 11:14:26;;;;;;;10.23;7.32;;;24.50;66.00;;;;;;5053116;28;20258;-59
2023/07/09 11:16:51;;;;;;;11.98;7.22;;;24.50;66.20;;;;;;5055065;28;20257;-59
2023/07/09 11:19:18;;;;;;;11.27;7.35;;;24.50;66.40;;;;;;5053495;28;20258;-59
2023/07/09 11:22:17;;;;;;;11.38;8.20;;;24.50;66.40;;;;;;5054302;28;20198;-59
2023/07/09 11:24:55;;;;;;;11.20;7.32;;;24.60;65.90;;;;;;5054564;28;20640;-59
2023/07/09 11:27:26;;;;;;;12.57;8.38;;;24.60;65.20;;;;;;5053609;28;20634;-58
2023/07/09 11:30:03;;;;;;;15.43;7.72;;;24.60;65.60;;;;;;5054471;28;20213;-58
2023/07/09 11:32:29;;;;;;;17.70;7.88;;;24.60;65.80;;;;;;5053107;28;20178;-66
2023/07/09 11:34:55;;;;;;;11.57;7.80;;;24.70;66.00;;;;;;5053874;28;20642;-58
2023/07/09 11:37:25;;;;;;;12.43;7.80;;;24.70;65.50;;;;;;5052044;28;20179;-59
2023/07/09 11:39:50;;;;;;;13.77;8.60;;;24.70;65.40;;;;;;5053387;28;20227;-59
2023/07/09 11:42:33;;;;;;;13.77;7.75;;;24.70;65.20;;;;;;5036211;28;20699;-59
2023/07/09 11:45:06;;;;;;;18.42;8.27;;;24.70;65.20;;;;;;5053121;28;20219;-59
2023/07/09 11:47:37;;;;;;;13.20;7.63;;;24.70;65.20;;;;;;5053450;28;20206;-59
2023/07/09 11:50:13;;;;;;;12.10;7.78;;;24.70;65.00;;;;;;5052513;28;20532;-59
2023/07/09 11:52:54;;;;;;;17.75;8.02;;;24.70;64.90;;;;;;5054585;28;20175;-59
2023/07/09 11:55:23;;;;;;;13.13;8.43;;;24.70;64.80;;;;;;5037103;28;20183;-59
2023/07/09 11:57:53;;;;;;;14.68;7.95;;;24.70;64.60;;;;;;5053566;28;20630;-59
2023/07/09 12:00:18;;;;;;;9.18;6.97;;;24.70;64.50;;;;;;5054195;28;20187;-60
2023/07/09 12:02:44;;;;;;;11.20;7.13;;;24.70;64.30;;;;;;5054104;28;20225;-60
2023/07/09 12:05:09;;;;;;;12.00;7.78;;;24.70;64.20;;;;;;5035682;28;20181;-60
2023/07/09 12:07:35;;;;;;;13.55;8.60;;;24.70;64.10;;;;;;5054336;28;20182;-59
2023/07/09 12:10:03;;;;;;;11.20;6.95;;;24.80;64.00;;;;;;5053972;28;20181;-59
2023/07/09 12:12:28;;;;;;;12.55;6.95;;;24.80;63.80;;;;;;5053301;28;20179;-59
2023/07/09 12:14:54;;;;;;;15.20;7.32;;;24.80;63.70;;;;;;5054028;28;20642;-59
2023/07/09 12:17:24;;;;;;;11.68;7.60;;;24.80;63.60;;;;;;5052065;28;20547;-59
2023/07/09 12:19:51;;;;;;;10.45;7.40;;;24.80;63.50;;;;;;5053261;28;20179;-59
2023/07/09 12:22:20;;;;;;;10.05;6.43;;;24.80;63.40;;;;;;5053661;28;20200;-59
2023/07/09 12:24:47;;;;;;;11.90;7.15;;;24.80;63.40;;;;;;5035846;28;20226;-59
2023/07/09 12:27:21;;;;;;;9.15;6.60;;;24.80;63.30;;;;;;5053512;28;20179;-59
2023/07/09 12:29:47;;;;;;;9.63;7.25;;;24.90;63.20;;;;;;5053933;28;20183;-58
2023/07/09 12:32:14;;;;;;;11.38;7.03;;;24.90;63.20;;;;;;5052570;28;20178;-59
2023/07/09 12:34:40;;;;;;;10.68;6.72;;;24.90;63.10;;;;;;5053790;28;20261;-60
2023/07/09 12:37:14;;;;;;;9.52;6.93;;;24.90;63.10;;;;;;5053611;28;20194;-59
2023/07/09 12:39:46;;;;;;;13.45;7.70;;;24.80;62.80;;;;;;5130868;27;20641;-60
2023/07/09 12:42:15;;;;;;;10.50;6.97;;;24.90;62.90;;;;;;5113032;28;20259;-60
2023/07/09 12:44:41;;;;;;;10.55;6.43;;;24.90;62.80;;;;;;5131378;28;20176;-60
2023/07/09 12:47:09;;;;;;;11.18;6.38;;;24.90;62.80;;;;;;5129215;28;20234;-59
2023/07/09 12:49:40;;;;;;;11.65;6.75;;;24.90;62.70;;;;;;5129958;28;20641;-60
2023/07/09 12:52:32;;;;;;;10.70;7.00;;;24.90;62.60;;;;;;5130755;28;20177;-59